Time;durP1;ratioP1;P1;durP2;ratioP2;P2;SDS_P1;SDS_P2;PMS_P1;PMS_P2;Temp;Humidity;BMP_temperature;BMP_pressure;BME280_temperature;BME280_humidity;BME280_pressure;Samples;Min_cycle;Max_cycle;Signal;HPM_P1;HPM_P2
2022/09/27 00:02:11;;;;;;;4.87;1.43;;;10.20;99.90;;;;;;5135940;27;20208;-83
2022/09/27 00:04:38;;;;;;;2.40;1.03;;;10.20;99.90;;;;;;5135878;27;20208;-82
2022/09/27 00:07:06;;;;;;;5.80;1.00;;;10.20;99.90;;;;;;5136034;27;20574;-82
2022/09/27 00:09:33;;;;;;;4.70;1.23;;;10.10;99.90;;;;;;5134650;27;20227;-83
2022/09/27 00:12:00;;;;;;;3.60;0.80;;;10.20;99.90;;;;;;5114751;28;20251;-82
2022/09/27 00:14:27;;;;;;;3.67;0.90;;;10.20;99.90;;;;;;5115008;28;20200;-81
2022/09/27 00:16:56;;;;;;;4.53;1.40;;;10.20;99.90;;;;;;5114464;28;20211;-81
2022/09/27 00:19:24;;;;;;;4.23;1.10;;;10.30;99.90;;;;;;5115118;28;20204;-82
2022/09/27 00:21:52;;;;;;;2.73;1.10;;;10.40;99.90;;;;;;5115503;28;20750;-83
2022/09/27 00:24:21;;;;;;;6.20;1.60;;;10.40;99.90;;;;;;5115229;28;20197;-81
2022/09/27 00:26:49;;;;;;;4.47;1.60;;;10.30;99.90;;;;;;5115007;28;20676;-82
2022/09/27 00:29:18;;;;;;;2.87;0.90;;;10.30;99.90;;;;;;5115183;28;20209;-83
2022/09/27 00:31:45;;;;;;;1.93;0.80;;;10.30;99.90;;;;;;5114341;28;20224;-84
2022/09/27 00:34:19;;;;;;;6.20;1.77;;;10.10;99.90;;;;;;5115161;28;20189;-80
2022/09/27 00:36:46;;;;;;;5.53;0.97;;;10.10;99.90;;;;;;5114622;28;20254;-82
2022/09/27 00:39:13;;;;;;;4.40;1.10;;;10.00;99.90;;;;;;5114761;28;20660;-82
2022/09/27 00:41:41;;;;;;;3.63;0.93;;;10.00;99.90;;;;;;5114635;28;20215;-83
2022/09/27 00:44:41;;;;;;;4.47;0.97;;;10.00;99.90;;;;;;5113989;28;20185;-83
2022/09/27 00:47:14;;;;;;;2.40;1.10;;;9.90;99.90;;;;;;5114516;28;20207;-83
2022/09/27 00:49:47;;;;;;;6.73;1.77;;;9.90;99.90;;;;;;5113435;28;20436;-80
2022/09/27 00:52:20;;;;;;;3.90;1.03;;;10.00;99.90;;;;;;5114409;28;20683;-81
2022/09/27 00:54:52;;;;;;;3.23;1.13;;;10.00;99.90;;;;;;5115010;28;20199;-82
2022/09/27 00:57:22;;;;;;;3.47;1.47;;;10.00;99.90;;;;;;5114487;28;20196;-81
2022/09/27 00:59:53;;;;;;;4.87;1.10;;;10.10;99.90;;;;;;5114349;28;20193;-78
2022/09/27 01:02:20;;;;;;;1.77;1.30;;;10.00;99.90;;;;;;5114678;28;20193;-79
2022/09/27 01:04:50;;;;;;;6.30;1.30;;;10.10;99.90;;;;;;5114201;28;20285;-82
2022/09/27 01:07:17;;;;;;;3.43;1.40;;;10.00;99.90;;;;;;5114416;28;20204;-79
2022/09/27 01:09:43;;;;;;;2.73;1.00;;;9.80;99.90;;;;;;5114206;28;20679;-82
2022/09/27 01:12:19;;;;;;;3.87;1.10;;;9.80;99.90;;;;;;5114092;28;20311;-81
2022/09/27 01:15:04;;;;;;;4.80;1.50;;;9.80;99.90;;;;;;5113664;28;20430;-83
2022/09/27 01:17:41;;;;;;;1.93;1.20;;;9.90;99.90;;;;;;5113818;28;20204;-81
2022/09/27 01:20:38;;;;;;;3.60;1.00;;;9.80;99.90;;;;;;5113992;28;20201;-79
2022/09/27 01:23:33;;;;;;;1.73;1.30;;;9.80;99.90;;;;;;5114103;28;20208;-82
2022/09/27 01:26:13;;;;;;;3.53;1.40;;;9.90;99.90;;;;;;5113718;28;20664;-81
2022/09/27 01:28:50;;;;;;;4.63;1.90;;;10.00;99.90;;;;;;5113219;28;20185;-81
2022/09/27 01:31:24;;;;;;;2.83;2.00;;;10.00;99.90;;;;;;5113714;28;20662;-81
2022/09/27 01:34:01;;;;;;;3.07;1.90;;;10.00;99.90;;;;;;5114002;28;20192;-82
2022/09/27 01:36:38;;;;;;;5.30;2.00;;;9.90;99.90;;;;;;5114001;28;20253;-82
2022/09/27 01:39:20;;;;;;;2.87;1.20;;;10.00;99.90;;;;;;5113384;28;20201;-83
2022/09/27 01:41:58;;;;;;;2.88;1.30;;;9.90;99.90;;;;;;5113225;28;20895;-80
2022/09/27 01:44:30;;;;;;;2.70;1.03;;;9.90;99.90;;;;;;5113658;28;20200;-79
2022/09/27 01:47:04;;;;;;;2.40;1.10;;;9.90;99.90;;;;;;5113498;28;20214;-81
2022/09/27 01:49:37;;;;;;;3.90;1.13;;;9.90;99.90;;;;;;5113782;28;20282;-82
2022/09/27 01:52:07;;;;;;;3.80;1.00;;;9.80;99.90;;;;;;5113639;28;20240;-81
2022/09/27 01:54:39;;;;;;;4.13;1.20;;;9.80;99.90;;;;;;5113988;28;20203;-82
2022/09/27 01:57:09;;;;;;;2.30;1.00;;;9.90;99.90;;;;;;5120066;28;20546;-82
2022/09/27 01:59:41;;;;;;;2.37;0.90;;;9.70;99.90;;;;;;5120185;27;20211;-81
2022/09/27 02:02:12;;;;;;;1.87;1.00;;;9.60;99.90;;;;;;5120429;28;20587;-81
2022/09/27 02:04:42;;;;;;;2.90;1.20;;;9.70;99.90;;;;;;5120389;28;20214;-82
2022/09/27 02:07:13;;;;;;;5.03;1.80;;;9.80;99.90;;;;;;5120141;28;20204;-79
2022/09/27 02:09:46;;;;;;;4.27;1.63;;;9.80;99.90;;;;;;5120350;28;20220;-81
2022/09/27 02:12:16;;;;;;;7.50;1.50;;;9.80;99.90;;;;;;5120084;27;20228;-82
2022/09/27 02:14:49;;;;;;;3.87;1.40;;;9.80;99.90;;;;;;5120283;28;20204;-82
2022/09/27 02:17:25;;;;;;;6.77;1.80;;;9.70;99.90;;;;;;5120362;28;20188;-82
2022/09/27 02:20:00;;;;;;;3.80;1.93;;;9.70;99.90;;;;;;5120136;28;20204;-81
2022/09/27 02:22:35;;;;;;;2.67;1.80;;;9.60;99.90;;;;;;5120199;28;20652;-82
2022/09/27 02:25:10;;;;;;;6.57;2.00;;;9.70;99.90;;;;;;5120321;28;20538;-82
2022/09/27 02:27:44;;;;;;;5.27;2.20;;;9.70;99.90;;;;;;5120122;28;20203;-82
2022/09/27 02:30:14;;;;;;;4.43;1.90;;;9.70;99.90;;;;;;5120220;28;20195;-81
2022/09/27 02:32:43;;;;;;;5.70;1.80;;;9.70;99.90;;;;;;5120048;28;20228;-82
2022/09/27 02:35:15;;;;;;;7.05;2.45;;;9.80;99.90;;;;;;5119073;28;20424;-82
2022/09/27 02:37:42;;;;;;;6.83;2.50;;;9.80;99.90;;;;;;5120266;28;20284;-80
2022/09/27 02:40:10;;;;;;;4.57;1.83;;;9.80;99.90;;;;;;5120076;28;20193;-80
2022/09/27 02:42:38;;;;;;;5.70;1.80;;;9.90;99.90;;;;;;5119799;28;20212;-79
2022/09/27 02:45:06;;;;;;;6.70;1.77;;;9.90;99.90;;;;;;5120044;28;20208;-80
2022/09/27 02:47:49;;;;;;;4.60;1.63;;;10.00;99.90;;;;;;5119917;28;20196;-79
2022/09/27 02:50:44;;;;;;;7.37;1.90;;;9.90;99.90;;;;;;5119948;28;20261;-80
2022/09/27 02:53:19;;;;;;;3.77;1.53;;;10.00;99.90;;;;;;5117886;28;20232;-81
2022/09/27 02:55:53;;;;;;;5.43;1.87;;;10.10;99.90;;;;;;5119326;28;20206;-81
2022/09/27 02:58:31;;;;;;;2.40;1.50;;;10.10;99.90;;;;;;5120115;28;20206;-80
2022/09/27 03:01:06;;;;;;;2.23;1.50;;;10.10;99.90;;;;;;5119941;28;20208;-79
2022/09/27 03:03:42;;;;;;;4.20;1.77;;;10.10;99.90;;;;;;5119946;28;20203;-80
2022/09/27 03:06:12;;;;;;;2.53;1.23;;;10.10;99.90;;;;;;5119049;28;20215;-79
2022/09/27 03:08:40;;;;;;;5.53;1.53;;;10.00;99.90;;;;;;5115943;28;20220;-81
2022/09/27 03:11:07;;;;;;;4.83;1.60;;;10.10;99.90;;;;;;5116391;28;20205;-79
2022/09/27 03:13:37;;;;;;;3.37;1.50;;;9.90;99.90;;;;;;5116441;28;20217;-81
2022/09/27 03:16:04;;;;;;;2.90;1.40;;;9.90;99.90;;;;;;5116315;28;20647;-80
2022/09/27 03:18:31;;;;;;;5.77;1.63;;;9.90;99.90;;;;;;5116594;28;20200;-81
2022/09/27 03:21:00;;;;;;;5.23;1.60;;;9.90;99.90;;;;;;5116571;28;20222;-81
2022/09/27 03:23:27;;;;;;;2.40;1.40;;;9.90;99.90;;;;;;5116507;28;20215;-80
2022/09/27 03:25:54;;;;;;;4.33;1.20;;;9.90;99.90;;;;;;5115664;28;20549;-80
2022/09/27 03:28:20;;;;;;;4.03;1.30;;;10.00;99.90;;;;;;5116315;28;20195;-80
2022/09/27 03:30:48;;;;;;;5.78;2.10;;;10.00;99.90;;;;;;5115066;28;20912;-80
2022/09/27 03:33:15;;;;;;;9.00;2.33;;;10.10;99.90;;;;;;5115964;28;20239;-81
2022/09/27 03:35:42;;;;;;;3.33;1.60;;;10.10;99.90;;;;;;5116287;28;20200;-85
2022/09/27 03:38:11;;;;;;;6.10;1.80;;;10.10;99.90;;;;;;5115912;27;20614;-85
2022/09/27 03:40:38;;;;;;;3.13;1.90;;;10.00;99.90;;;;;;5115753;28;20250;-85
2022/09/27 03:43:05;;;;;;;4.63;1.43;;;9.90;99.90;;;;;;5116314;28;20271;-85
2022/09/27 03:45:32;;;;;;;3.83;1.50;;;9.80;99.90;;;;;;5115909;28;20283;-85
2022/09/27 03:47:59;;;;;;;4.37;1.67;;;9.80;99.90;;;;;;5115949;28;20204;-85
2022/09/27 03:50:28;;;;;;;4.33;1.63;;;9.80;99.90;;;;;;5115925;28;20238;-85
2022/09/27 03:52:55;;;;;;;2.83;1.70;;;9.90;99.90;;;;;;5115483;28;20220;-86
2022/09/27 03:55:23;;;;;;;4.87;2.00;;;10.00;99.90;;;;;;5115676;28;20204;-86
2022/09/27 03:57:50;;;;;;;4.93;2.40;;;10.00;99.90;;;;;;5115744;28;20279;-87
2022/09/27 04:00:17;;;;;;;6.47;3.27;;;10.10;99.90;;;;;;5115616;28;20425;-86
2022/09/27 04:02:44;;;;;;;6.37;3.37;;;10.10;99.90;;;;;;5115846;28;20206;-87
2022/09/27 04:05:11;;;;;;;4.73;4.20;;;10.00;99.90;;;;;;5115565;28;20272;-87
2022/09/27 04:07:38;;;;;;;7.80;4.87;;;10.00;99.90;;;;;;5115253;28;20207;-85
2022/09/27 04:10:06;;;;;;;5.30;4.00;;;10.00;99.90;;;;;;5115639;28;20220;-84
2022/09/27 04:12:35;;;;;;;6.47;4.40;;;10.00;99.90;;;;;;5115092;28;20279;-85
2022/09/27 04:15:02;;;;;;;5.90;5.30;;;10.00;99.90;;;;;;5115601;28;20201;-87
2022/09/27 04:17:32;;;;;;;12.87;9.83;;;9.90;99.90;;;;;;5115370;28;20207;-91
2022/09/27 04:20:02;;;;;;;5.33;4.80;;;9.80;99.90;;;;;;5115898;28;20185;-89
2022/09/27 04:22:34;;;;;;;5.67;4.70;;;9.70;99.90;;;;;;5116108;28;20204;-90
2022/09/27 04:25:03;;;;;;;7.07;4.10;;;9.60;99.90;;;;;;5116122;28;20220;-90
2022/09/27 04:27:30;;;;;;;7.88;4.93;;;9.60;99.90;;;;;;5114586;28;20428;-92
2022/09/27 04:30:06;;;;;;;5.97;3.53;;;9.60;99.90;;;;;;5116213;28;20303;-91
2022/09/27 04:32:41;;;;;;;5.53;3.37;;;9.60;99.90;;;;;;5115979;28;20231;-92
2022/09/27 04:37:58;;;;;;;5.40;3.20;;;9.50;99.90;;;;;;5115073;28;20192;-92
2022/09/27 04:40:25;;;;;;;5.70;3.60;;;9.50;99.90;;;;;;5115788;28;20204;-90
2022/09/27 04:42:53;;;;;;;5.53;3.20;;;9.50;99.90;;;;;;5114459;28;20205;-90
2022/09/27 04:45:23;;;;;;;4.67;3.03;;;9.50;99.90;;;;;;5115536;28;20201;-92
2022/09/27 04:47:50;;;;;;;4.50;3.07;;;9.50;99.90;;;;;;5115731;28;20197;-91
2022/09/27 04:50:18;;;;;;;6.93;3.50;;;9.50;99.90;;;;;;5115400;28;20203;-88
2022/09/27 04:52:50;;;;;;;3.47;2.93;;;9.50;99.90;;;;;;5115493;28;20269;-91
2022/09/27 04:55:18;;;;;;;5.90;2.73;;;9.50;99.90;;;;;;5115493;28;20257;-86
2022/09/27 04:57:45;;;;;;;4.10;2.60;;;9.50;99.90;;;;;;5115110;28;20196;-86
2022/09/27 05:00:12;;;;;;;6.07;3.20;;;9.50;99.90;;;;;;5115450;28;20212;-93
2022/09/27 05:02:48;;;;;;;3.63;2.87;;;9.50;99.90;;;;;;5127363;27;20204;-90
2022/09/27 05:05:15;;;;;;;2.90;2.60;;;9.50;99.90;;;;;;5114807;28;20219;-91
2022/09/27 05:07:42;;;;;;;5.73;2.80;;;9.50;99.90;;;;;;5114607;28;20212;-92
2022/09/27 05:10:16;;;;;;;4.13;2.70;;;9.50;99.90;;;;;;5114065;28;20771;-90
2022/09/27 05:12:45;;;;;;;2.53;2.30;;;9.60;99.90;;;;;;5114913;28;20188;-92
2022/09/27 05:15:12;;;;;;;5.40;2.20;;;9.50;99.90;;;;;;5115207;28;20271;-87
2022/09/27 05:17:45;;;;;;;5.50;2.20;;;9.40;99.90;;;;;;5114871;28;20195;-92
2022/09/27 05:20:14;;;;;;;5.97;2.53;;;9.40;99.90;;;;;;5114840;28;20215;-88
2022/09/27 05:22:41;;;;;;;4.30;2.20;;;9.40;99.90;;;;;;5115063;28;20205;-89
2022/09/27 05:25:10;;;;;;;2.77;2.23;;;9.40;99.90;;;;;;5114806;28;20215;-91
2022/09/27 05:27:36;;;;;;;3.97;2.10;;;9.30;99.90;;;;;;5115021;28;20211;-90
2022/09/27 05:30:11;;;;;;;2.47;2.10;;;9.30;99.90;;;;;;5114342;28;20189;-90
2022/09/27 05:32:45;;;;;;;2.93;2.10;;;9.30;99.90;;;;;;5114610;28;20210;-91
2022/09/27 05:35:16;;;;;;;2.27;1.47;;;9.30;99.90;;;;;;5114305;28;20242;-92
2022/09/27 05:37:43;;;;;;;1.73;1.63;;;9.30;99.90;;;;;;5114417;28;20283;-90
2022/09/27 05:40:13;;;;;;;1.80;1.67;;;9.30;99.90;;;;;;5114611;28;20211;-90
2022/09/27 05:42:42;;;;;;;5.60;2.20;;;9.30;99.90;;;;;;5114706;28;20220;-89
2022/09/27 05:45:10;;;;;;;3.57;1.83;;;9.30;99.90;;;;;;5114545;28;20193;-89
2022/09/27 05:47:37;;;;;;;3.30;2.13;;;9.30;99.90;;;;;;5115558;28;20912;-89
2022/09/27 05:50:06;;;;;;;3.33;1.70;;;9.30;99.90;;;;;;5114346;28;20529;-88
2022/09/27 05:52:34;;;;;;;3.40;1.73;;;9.30;99.90;;;;;;5116047;28;20651;-88
2022/09/27 05:55:03;;;;;;;4.83;2.00;;;9.30;99.90;;;;;;5115580;28;20228;-88
2022/09/27 05:57:30;;;;;;;9.17;2.10;;;9.30;99.90;;;;;;5117124;28;20184;-91
2022/09/27 05:59:58;;;;;;;3.43;1.90;;;9.30;99.90;;;;;;5117576;28;20707;-89
2022/09/27 06:02:24;;;;;;;2.67;1.97;;;9.30;99.90;;;;;;5114866;28;20192;-86
2022/09/27 06:04:51;;;;;;;2.40;2.07;;;9.30;99.90;;;;;;5113377;28;20192;-85
2022/09/27 06:07:19;;;;;;;6.73;2.57;;;9.20;99.90;;;;;;5113631;28;20208;-86
2022/09/27 06:09:47;;;;;;;2.67;2.43;;;9.20;99.90;;;;;;5113164;28;20253;-85
2022/09/27 06:12:14;;;;;;;4.77;2.77;;;9.20;99.90;;;;;;5113842;28;20207;-89
2022/09/27 06:14:41;;;;;;;3.23;2.57;;;9.20;99.90;;;;;;5112863;28;20451;-87
2022/09/27 06:17:07;;;;;;;4.67;2.53;;;9.20;99.90;;;;;;5113586;28;20446;-84
2022/09/27 06:19:35;;;;;;;5.47;2.10;;;9.30;99.90;;;;;;5113188;28;20211;-87
2022/09/27 06:22:01;;;;;;;4.87;2.30;;;9.30;99.90;;;;;;5113916;28;20204;-87
2022/09/27 06:24:28;;;;;;;4.57;1.90;;;9.30;99.90;;;;;;5113517;28;20205;-85
2022/09/27 06:26:57;;;;;;;2.93;2.40;;;9.30;99.90;;;;;;5113958;28;20204;-85
2022/09/27 06:29:24;;;;;;;5.43;3.13;;;9.40;99.90;;;;;;5118797;28;20196;-85
2022/09/27 06:31:51;;;;;;;5.07;2.10;;;9.50;99.90;;;;;;5113880;28;20205;-89
2022/09/27 06:34:18;;;;;;;2.60;2.40;;;9.50;99.90;;;;;;5113443;28;20228;-84
2022/09/27 06:36:45;;;;;;;5.43;2.53;;;9.50;99.90;;;;;;5120824;28;20184;-86
2022/09/27 06:39:12;;;;;;;3.70;2.60;;;9.60;99.90;;;;;;5133769;28;20196;-86
2022/09/27 06:41:40;;;;;;;11.73;5.20;;;9.50;99.90;;;;;;5130953;27;20666;-88
2022/09/27 06:44:08;;;;;;;4.47;3.50;;;9.60;99.90;;;;;;5126483;27;20590;-86
2022/09/27 06:46:37;;;;;;;5.93;3.03;;;9.60;99.90;;;;;;5130745;27;20202;-89
2022/09/27 06:49:04;;;;;;;4.80;2.93;;;9.50;99.90;;;;;;5136991;27;20198;-85
2022/09/27 06:51:30;;;;;;;3.60;2.70;;;9.60;99.90;;;;;;5138069;27;20188;-86
2022/09/27 06:53:58;;;;;;;3.87;3.03;;;9.70;99.90;;;;;;5128854;27;20204;-86
2022/09/27 06:56:26;;;;;;;3.33;2.87;;;9.80;99.90;;;;;;5122446;27;20629;-88
2022/09/27 07:01:39;;;;;;;7.80;3.20;;;9.90;99.90;;;;;;5128825;28;20222;-89
2022/09/27 07:04:06;;;;;;;3.03;2.77;;;9.90;99.90;;;;;;5126022;28;20257;-85
2022/09/27 07:06:34;;;;;;;4.93;3.07;;;9.90;99.90;;;;;;5126700;28;20275;-84
2022/09/27 07:09:01;;;;;;;5.67;3.37;;;9.90;99.90;;;;;;5127336;28;20224;-88
2022/09/27 07:11:29;;;;;;;4.95;3.70;;;9.80;99.90;;;;;;5126184;28;20484;-86
2022/09/27 07:13:56;;;;;;;5.20;3.20;;;9.90;99.90;;;;;;5127930;28;20299;-88
2022/09/27 07:16:23;;;;;;;4.17;3.27;;;9.90;99.90;;;;;;5126518;28;20189;-90
2022/09/27 07:18:51;;;;;;;5.47;3.03;;;9.90;99.90;;;;;;5127657;28;20207;-87
2022/09/27 07:21:18;;;;;;;2.80;2.60;;;9.90;99.90;;;;;;5127374;28;20580;-86
2022/09/27 07:23:45;;;;;;;4.63;2.90;;;9.90;99.90;;;;;;5127630;28;20234;-90
2022/09/27 07:26:12;;;;;;;3.07;2.60;;;9.90;99.90;;;;;;5128327;27;20190;-90
2022/09/27 07:28:40;;;;;;;4.60;2.90;;;9.80;99.90;;;;;;5126029;28;20205;-85
2022/09/27 07:31:08;;;;;;;3.17;2.83;;;9.80;99.90;;;;;;5125743;28;20205;-86
2022/09/27 07:33:35;;;;;;;4.30;2.77;;;9.80;99.90;;;;;;5126910;28;20610;-85
2022/09/27 07:36:08;;;;;;;8.47;2.80;;;9.80;99.90;;;;;;5126853;28;20287;-89
2022/09/27 07:38:36;;;;;;;4.57;3.50;;;9.80;99.90;;;;;;5124003;28;20439;-86
2022/09/27 07:41:06;;;;;;;3.63;2.50;;;9.90;99.90;;;;;;5123361;28;20188;-85
2022/09/27 07:43:33;;;;;;;5.07;2.73;;;9.90;99.90;;;;;;5123242;28;20204;-89
2022/09/27 07:46:00;;;;;;;4.17;2.23;;;9.90;99.90;;;;;;5123913;28;20188;-88
2022/09/27 07:48:27;;;;;;;3.50;2.43;;;9.80;99.90;;;;;;5120367;28;20234;-85
2022/09/27 07:50:54;;;;;;;4.13;2.63;;;9.80;99.90;;;;;;5118449;28;20268;-86
2022/09/27 07:53:23;;;;;;;6.03;2.47;;;9.80;99.90;;;;;;5117626;28;20208;-90
2022/09/27 07:55:52;;;;;;;5.10;2.20;;;9.80;99.90;;;;;;5117645;28;20200;-87
2022/09/27 07:58:19;;;;;;;7.40;2.53;;;9.80;99.90;;;;;;5119257;28;20648;-86
2022/09/27 08:00:46;;;;;;;2.70;2.50;;;9.80;99.90;;;;;;5117821;28;20192;-87
2022/09/27 08:03:14;;;;;;;3.93;2.40;;;9.90;99.90;;;;;;5116976;28;20652;-87
2022/09/27 08:05:42;;;;;;;7.45;2.92;;;9.80;99.90;;;;;;5115495;28;20462;-89
2022/09/27 08:08:10;;;;;;;5.20;2.53;;;9.90;99.90;;;;;;5115727;28;20254;-86
2022/09/27 08:10:43;;;;;;;2.50;1.93;;;9.90;99.90;;;;;;5121318;27;20735;-88
2022/09/27 08:13:11;;;;;;;5.07;2.60;;;9.90;99.90;;;;;;5133297;27;20311;-89
2022/09/27 08:15:38;;;;;;;4.30;2.13;;;9.80;99.90;;;;;;5135902;27;20223;-89
2022/09/27 08:18:05;;;;;;;3.90;2.27;;;9.80;99.90;;;;;;5136211;27;20200;-88
2022/09/27 08:20:32;;;;;;;2.77;1.80;;;9.80;99.90;;;;;;5136687;27;20206;-88
2022/09/27 08:22:59;;;;;;;3.00;2.10;;;9.80;99.90;;;;;;5136042;27;20191;-88
2022/09/27 08:25:27;;;;;;;4.70;2.20;;;9.70;99.90;;;;;;5136801;27;20202;-89
2022/09/27 08:27:59;;;;;;;5.40;2.43;;;9.70;99.90;;;;;;5141117;27;20256;-87
2022/09/27 08:30:27;;;;;;;4.13;2.20;;;9.70;99.90;;;;;;5139579;27;20204;-89
2022/09/27 08:32:58;;;;;;;2.75;2.13;;;9.70;99.90;;;;;;5138316;27;20085;-85
2022/09/27 08:35:27;;;;;;;5.83;1.80;;;9.80;99.90;;;;;;5137078;27;20259;-88
2022/09/27 08:37:55;;;;;;;4.97;1.63;;;9.80;99.90;;;;;;5131734;27;20537;-85
2022/09/27 08:40:26;;;;;;;1.87;1.77;;;9.80;99.90;;;;;;5138422;27;20188;-87
2022/09/27 08:43:03;;;;;;;3.93;1.50;;;9.80;99.90;;;;;;5137981;27;20231;-87
2022/09/27 08:45:35;;;;;;;2.87;1.40;;;9.70;99.90;;;;;;5136475;27;20651;-87
2022/09/27 08:48:04;;;;;;;2.37;1.20;;;9.80;99.90;;;;;;5135218;27;20215;-85
2022/09/27 08:50:34;;;;;;;4.50;1.50;;;9.80;99.90;;;;;;5135951;27;20196;-86
2022/09/27 08:53:05;;;;;;;2.03;1.30;;;9.80;99.90;;;;;;5138233;27;20242;-89
2022/09/27 08:55:36;;;;;;;4.90;1.47;;;9.80;99.90;;;;;;5139460;27;20231;-87
2022/09/27 08:58:14;;;;;;;5.03;1.33;;;9.90;99.90;;;;;;5137684;27;20248;-88
2022/09/27 09:00:42;;;;;;;4.27;1.60;;;9.90;99.90;;;;;;5136529;27;20257;-88
2022/09/27 09:03:19;;;;;;;4.70;2.00;;;10.00;99.90;;;;;;5134059;27;20434;-87
2022/09/27 09:05:54;;;;;;;3.60;1.53;;;10.20;99.90;;;;;;5133984;27;20221;-86
2022/09/27 09:08:31;;;;;;;4.90;2.27;;;10.30;99.90;;;;;;5134531;27;20223;-88
2022/09/27 09:14:22;;;;;;;3.20;1.60;;;10.40;99.90;;;;;;5134483;27;20567;-86
2022/09/27 09:17:00;;;;;;;5.43;2.20;;;10.40;99.90;;;;;;5125382;27;20215;-86
2022/09/27 09:19:52;;;;;;;3.33;1.73;;;10.60;99.90;;;;;;5135023;27;20206;-84
2022/09/27 09:22:37;;;;;;;3.10;1.90;;;10.70;99.90;;;;;;5134849;27;20203;-85
2022/09/27 09:25:18;;;;;;;5.33;1.93;;;10.80;99.90;;;;;;5134621;27;20544;-86
2022/09/27 09:28:00;;;;;;;4.87;1.73;;;11.00;99.90;;;;;;5134609;27;20200;-90
2022/09/27 09:30:35;;;;;;;4.23;1.97;;;11.10;99.90;;;;;;5134995;27;20189;-84
2022/09/27 09:33:14;;;;;;;6.33;2.13;;;11.30;99.90;;;;;;5134635;27;20652;-87
2022/09/27 09:35:46;;;;;;;3.23;1.77;;;11.40;99.90;;;;;;5134649;27;20584;-86
2022/09/27 09:38:18;;;;;;;5.33;1.80;;;11.40;99.90;;;;;;5134569;27;20189;-89
2022/09/27 09:40:48;;;;;;;2.87;1.67;;;11.30;99.90;;;;;;5134909;27;20211;-87
2022/09/27 09:43:20;;;;;;;5.73;1.77;;;11.40;99.90;;;;;;5133896;27;20546;-84
2022/09/27 09:45:52;;;;;;;5.30;2.00;;;11.40;99.90;;;;;;5134499;27;20206;-83
2022/09/27 09:48:28;;;;;;;5.63;1.80;;;11.40;99.90;;;;;;5134368;27;20197;-87
2022/09/27 09:51:00;;;;;;;2.83;1.63;;;11.50;99.90;;;;;;5134664;27;20668;-82
2022/09/27 09:53:36;;;;;;;4.10;1.80;;;11.50;99.90;;;;;;5134341;27;20196;-85
2022/09/27 09:56:09;;;;;;;4.47;1.90;;;11.50;99.90;;;;;;5130785;27;20224;-80
2022/09/27 09:58:41;;;;;;;7.10;2.17;;;11.60;99.90;;;;;;5123388;28;20244;-86
2022/09/27 10:01:20;;;;;;;7.30;2.10;;;11.80;99.90;;;;;;5113483;28;20200;-83
2022/09/27 10:03:49;;;;;;;6.83;1.90;;;11.80;99.90;;;;;;5134268;28;20201;-87
2022/09/27 10:06:16;;;;;;;6.00;1.50;;;12.00;99.90;;;;;;5134753;28;20219;-87
2022/09/27 10:08:44;;;;;;;4.57;2.20;;;12.00;99.90;;;;;;5134814;28;20312;-91
2022/09/27 10:11:19;;;;;;;5.20;1.40;;;12.10;99.90;;;;;;5134798;28;20198;-90
2022/09/27 10:13:46;;;;;;;6.67;2.07;;;12.20;99.90;;;;;;5135135;28;20223;-90
2022/09/27 10:16:17;;;;;;;5.30;1.67;;;12.30;99.90;;;;;;5136183;27;20217;-93
2022/09/27 10:18:45;;;;;;;4.57;1.87;;;12.30;99.90;;;;;;5139436;27;20198;-93
2022/09/27 10:21:19;;;;;;;4.07;1.73;;;12.30;99.90;;;;;;5144144;27;20216;-91
2022/09/27 10:24:11;;;;;;;6.73;2.07;;;12.20;99.90;;;;;;5144348;27;20254;-91
2022/09/27 10:26:42;;;;;;;6.03;2.20;;;12.20;99.90;;;;;;5132045;27;20197;-89
2022/09/27 10:29:31;;;;;;;5.93;1.80;;;12.30;99.90;;;;;;5141610;27;20203;-90
2022/09/27 10:32:02;;;;;;;5.47;2.20;;;12.40;99.90;;;;;;5136909;27;20215;-86
2022/09/27 10:34:33;;;;;;;5.20;1.77;;;12.40;99.90;;;;;;5141247;27;20218;-88
2022/09/27 10:37:17;;;;;;;5.63;2.23;;;12.50;99.90;;;;;;5134197;27;20191;-88
2022/09/27 10:39:44;;;;;;;6.83;1.93;;;12.50;99.90;;;;;;5127554;27;20198;-88
2022/09/27 10:42:21;;;;;;;1.97;1.00;;;12.40;99.90;;;;;;5133206;27;20201;-89
2022/09/27 10:44:48;;;;;;;4.03;1.10;;;12.10;99.90;;;;;;5139321;27;20212;-88
2022/09/27 10:47:22;;;;;;;4.30;0.80;;;11.70;99.90;;;;;;5137551;27;20192;-89
2022/09/27 10:49:51;;;;;;;2.43;0.73;;;11.40;99.90;;;;;;5141280;27;20216;-90
2022/09/27 10:52:22;;;;;;;0.83;0.63;;;11.10;99.90;;;;;;5141042;27;20562;-91
2022/09/27 10:54:55;;;;;;;2.07;0.80;;;11.00;99.90;;;;;;5142293;27;20230;-92
2022/09/27 10:57:24;;;;;;;1.97;0.60;;;11.00;99.90;;;;;;5142280;27;20202;-92
2022/09/27 10:59:54;;;;;;;3.40;0.60;;;10.90;99.90;;;;;;5139913;27;20199;-92
2022/09/27 11:02:26;;;;;;;1.07;0.80;;;10.80;99.90;;;;;;5139433;27;20275;-92
2022/09/27 11:05:10;;;;;;;4.17;1.20;;;10.80;99.90;;;;;;5137108;27;20206;-91
2022/09/27 11:07:48;;;;;;;5.97;1.20;;;10.90;99.90;;;;;;5139682;27;20192;-91
2022/09/27 11:10:30;;;;;;;1.90;1.03;;;11.10;99.90;;;;;;5134821;27;20199;-88
2022/09/27 11:13:11;;;;;;;1.97;0.90;;;11.30;99.90;;;;;;5141103;27;20233;-87
2022/09/27 11:15:50;;;;;;;4.73;1.03;;;11.60;99.90;;;;;;5140882;27;20228;-91
2022/09/27 11:18:28;;;;;;;2.10;1.00;;;11.70;99.90;;;;;;5141791;27;20185;-89
2022/09/27 11:21:06;;;;;;;1.83;1.00;;;11.70;99.90;;;;;;5140459;27;20199;-92
2022/09/27 11:23:47;;;;;;;2.63;0.83;;;11.80;99.90;;;;;;5135430;27;20188;-85
2022/09/27 11:26:28;;;;;;;1.20;0.67;;;11.70;99.90;;;;;;5116651;28;20207;-88
2022/09/27 11:29:06;;;;;;;2.60;0.67;;;11.70;99.90;;;;;;5115686;28;20197;-89
2022/09/27 11:31:43;;;;;;;1.20;1.00;;;11.50;99.90;;;;;;5117603;28;20288;-91
2022/09/27 11:34:30;;;;;;;2.30;1.10;;;11.40;99.90;;;;;;5117175;28;20202;-88
2022/09/27 11:37:15;;;;;;;2.53;1.10;;;11.40;99.90;;;;;;5117327;28;20218;-84
2022/09/27 11:39:59;;;;;;;2.07;0.87;;;11.40;99.90;;;;;;5118479;28;20215;-85
2022/09/27 11:42:54;;;;;;;2.23;1.37;;;11.40;99.90;;;;;;5126893;27;20197;-87
2022/09/27 11:45:34;;;;;;;2.07;1.20;;;11.40;99.90;;;;;;5136522;27;20636;-89
2022/09/27 11:48:12;;;;;;;3.33;1.47;;;11.60;99.90;;;;;;5136103;27;20528;-85
2022/09/27 11:50:58;;;;;;;3.13;1.37;;;11.80;99.90;;;;;;5136689;27;20186;-86
2022/09/27 11:53:43;;;;;;;2.50;1.30;;;12.00;99.90;;;;;;5136108;27;20211;-87
2022/09/27 11:56:22;;;;;;;1.57;0.97;;;12.20;99.90;;;;;;5136246;27;20229;-85
2022/09/27 11:59:00;;;;;;;2.13;1.20;;;12.40;99.90;;;;;;5135667;27;20203;-85
2022/09/27 12:01:33;;;;;;;4.43;1.63;;;12.60;99.90;;;;;;5135995;27;20249;-83
2022/09/27 12:04:33;;;;;;;6.10;1.43;;;12.70;99.90;;;;;;5136373;27;20198;-85
2022/09/27 12:07:09;;;;;;;3.50;1.10;;;12.70;99.90;;;;;;5125905;27;20588;-85
2022/09/27 12:09:40;;;;;;;4.67;1.47;;;12.80;99.90;;;;;;5135852;27;20222;-86
2022/09/27 12:12:14;;;;;;;3.57;1.63;;;12.90;99.90;;;;;;5134971;27;20223;-85
2022/09/27 12:14:45;;;;;;;5.07;1.30;;;13.10;99.90;;;;;;5135577;27;20183;-83
2022/09/27 12:17:16;;;;;;;3.90;1.40;;;13.10;99.90;;;;;;5135124;27;20215;-85
2022/09/27 12:19:47;;;;;;;5.57;1.67;;;13.30;99.90;;;;;;5135422;27;20215;-86
2022/09/27 12:22:16;;;;;;;4.00;1.50;;;13.30;99.90;;;;;;5135315;27;20234;-84
2022/09/27 12:24:45;;;;;;;4.97;1.30;;;13.30;99.90;;;;;;5135914;27;20196;-86
2022/09/27 12:27:19;;;;;;;2.10;1.10;;;13.10;99.90;;;;;;5135404;27;20705;-89
2022/09/27 12:29:48;;;;;;;3.70;1.10;;;12.60;99.90;;;;;;5135387;27;20209;-87
2022/09/27 12:32:19;;;;;;;2.43;0.80;;;12.30;99.90;;;;;;5134836;27;20571;-88
2022/09/27 12:34:51;;;;;;;3.20;0.90;;;12.20;99.90;;;;;;5135603;27;20191;-87
2022/09/27 12:37:23;;;;;;;2.70;0.70;;;12.00;99.90;;;;;;5130450;27;20589;-93
2022/09/27 12:39:56;;;;;;;3.03;0.83;;;12.10;99.90;;;;;;5125508;27;20193;-86
2022/09/27 12:42:31;;;;;;;5.17;0.90;;;12.20;99.90;;;;;;5126764;27;20202;-89
2022/09/27 12:44:58;;;;;;;0.87;0.70;;;12.40;99.90;;;;;;5125030;27;20201;-84
2022/09/27 12:47:39;;;;;;;2.03;0.83;;;12.50;99.90;;;;;;5123029;27;20203;-85
2022/09/27 12:50:13;;;;;;;2.90;1.17;;;12.60;99.90;;;;;;5122384;27;20432;-84
2022/09/27 12:52:44;;;;;;;1.33;0.83;;;13.00;99.90;;;;;;5123618;27;20572;-84
2022/09/27 12:55:36;;;;;;;2.33;0.90;;;13.10;99.90;;;;;;5123415;27;20226;-84
2022/09/27 12:58:32;;;;;;;4.57;1.10;;;13.10;99.90;;;;;;5122621;27;20220;-85
2022/09/27 13:01:05;;;;;;;3.33;1.20;;;13.20;99.90;;;;;;5115552;27;20200;-82
2022/09/27 13:03:46;;;;;;;3.97;1.30;;;13.40;99.90;;;;;;5123978;27;20196;-85
2022/09/27 13:06:37;;;;;;;3.13;1.13;;;13.30;99.90;;;;;;5113821;28;20208;-85
2022/09/27 13:09:31;;;;;;;1.87;0.77;;;13.40;99.90;;;;;;5113520;28;20280;-83
2022/09/27 13:12:09;;;;;;;3.93;1.10;;;12.90;99.90;;;;;;5082981;28;20200;-86
2022/09/27 13:14:44;;;;;;;6.50;1.13;;;12.60;99.90;;;;;;5122439;27;20278;-85
2022/09/27 13:17:33;;;;;;;2.40;1.10;;;12.40;99.90;;;;;;5124778;27;20202;-85
2022/09/27 13:20:00;;;;;;;3.30;1.10;;;12.40;99.90;;;;;;5113810;28;20666;-86
2022/09/27 13:22:44;;;;;;;6.70;1.33;;;12.50;99.90;;;;;;5113636;28;20196;-83
2022/09/27 13:25:46;;;;;;;11.20;1.77;;;12.60;99.90;;;;;;5113837;28;20647;-83
2022/09/27 13:28:32;;;;;;;6.00;1.60;;;12.90;99.90;;;;;;5113387;28;20210;-81